Weather reports worldwide

Advertisment
Katesbridge, United Kingdom (99014): temperature & dewpoint: 04.07.2020 05:00:00 - 10.07.2020 05:00:00 (BST)Katesbridge, United Kingdom (99014): wind speed & gusts: 04.07.2020 05:00:00 - 10.07.2020 05:00:00 (BST)Katesbridge, United Kingdom (99014): wind direction: 04.07.2020 05:00:00 - 10.07.2020 05:00:00 (BST)Katesbridge, United Kingdom (99014): sunshine duration: 04.07.2020 05:00:00 - 10.07.2020 05:00:00 (BST)Katesbridge, United Kingdom (99014): precipitation: 04.07.2020 05:00:00 - 10.07.2020 05:00:00 (BST)
Date & Time tt [°C] td [°C] ff [km/h] ff [kn] fx [km/h] fx [kn] dd sd [min] rr [mm]
10.07.2020 05:00:00 - - - - - - - - -
10.07.2020 04:00:00 8,0 6,7 4 2 - - WNW 0 0,0
10.07.2020 03:00:00 8,8 7,5 4 2 - - WNW 0 0,0
10.07.2020 02:00:00 8,5 7,3 5 3 - - WNW 0 0,0
10.07.2020 01:00:00 8,4 7,1 5 3 - - WNW - 0,0
10.07.2020 00:00:00 9,5 6,4 4 2 - - NNW 0 0,0
09.07.2020 23:00:00 10,4 6,3 5 3 - - NNW 0 0,0
09.07.2020 22:00:00 11,6 7,4 4 2 - - NW 0 0,0
09.07.2020 21:00:00 12,5 7,4 11 6 - - N 18 0,0
09.07.2020 20:00:00 14,4 7,3 15 8 - - N 60 0,0
09.07.2020 19:00:00 15,4 7,2 15 8 - - N 60 0,0
09.07.2020 18:00:00 15,9 7,3 15 8 - - N 60 0,0
09.07.2020 17:00:00 16,7 8,6 15 8 - - N 60 0,0
09.07.2020 16:00:00 16,9 9,0 15 8 - - N 54 0,0
09.07.2020 15:00:00 16,7 9,7 15 8 - - N 48 0,0
09.07.2020 14:00:00 16,2 10,1 11 6 - - N 36 0,0
09.07.2020 13:00:00 16,0 10,9 13 7 - - N 12 0,0
09.07.2020 12:00:00 14,8 11,7 11 6 - - N 0 0,0
09.07.2020 11:00:00 14,5 11,9 8 4 - - NNW 0 0,0
09.07.2020 10:00:00 13,4 11,3 8 4 - - NNE 0 0,0
09.07.2020 09:00:00 13,0 11,6 5 3 - - N 0 0,0
09.07.2020 08:00:00 12,3 11,4 5 3 - - N 0 0,0
09.07.2020 07:00:00 11,8 11,3 8 4 - - N 0 0,0
09.07.2020 06:00:00 11,5 11,0 5 3 - - N 0 0,0
09.07.2020 05:00:00 11,6 10,9 5 3 - - NNE 0 0,0
09.07.2020 04:00:00 11,9 11,3 15 8 - - NE 0 0,0
09.07.2020 03:00:00 12,2 11,7 11 6 - - E 0 0,2
09.07.2020 02:00:00 12,1 11,8 11 6 - - ENE 0 0,2
09.07.2020 01:00:00 11,9 11,4 15 8 - - NE - 0,0
09.07.2020 00:00:00 11,8 11,3 15 8 - - NE 0 0,2
08.07.2020 23:00:00 11,6 11,1 13 7 - - ENE 0 0,2
08.07.2020 22:00:00 11,6 10,9 8 4 - - E 0 2,0
08.07.2020 21:00:00 11,7 11,0 5 3 - - ESE 0 0,4
08.07.2020 20:00:00 11,7 10,7 5 3 - - E 0 0,4
08.07.2020 19:00:00 12,1 11,0 8 4 - - ESE 0 1,6
08.07.2020 18:00:00 12,7 10,0 9 5 - - ESE 0 0,0
08.07.2020 17:00:00 13,4 10,2 9 5 - - ESE 0 0,2
08.07.2020 16:00:00 14,2 10,0 11 6 - - SE 0 0,0
08.07.2020 15:00:00 14,3 10,8 11 6 - - SE 0 0,0
08.07.2020 14:00:00 14,3 10,3 11 6 - - ESE 0 0,0
08.07.2020 13:00:00 14,9 10,4 11 6 - - SE 6 0,0
08.07.2020 12:00:00 16,0 9,7 11 6 - - E 12 0,0
08.07.2020 11:00:00 15,9 10,1 11 6 - - E 36 0,0
08.07.2020 10:00:00 14,8 9,9 5 3 - - NE 54 0,0
08.07.2020 09:00:00 13,6 10,4 2 1 - - S 54 0,0
08.07.2020 08:00:00 11,9 10,2 2 1 - - NW 54 0,0
08.07.2020 07:00:00 8,9 8,7 4 2 - - W 0 0,0
08.07.2020 06:00:00 7,9 6,9 2 1 - - N 0 0,0
08.07.2020 05:00:00 9,6 8,4 4 2 - - NW 0 0,0
08.07.2020 04:00:00 10,5 8,7 4 2 - - NW 0 0,0
08.07.2020 03:00:00 10,6 9,3 4 2 - - NW 0 0,0
08.07.2020 02:00:00 10,7 9,2 4 2 - - NE 0 0,0
08.07.2020 01:00:00 10,6 9,1 2 1 - - ENE - 0,0
08.07.2020 00:00:00 10,8 9,6 4 2 - - NE 0 0,0
07.07.2020 23:00:00 11,0 10,0 4 2 - - ESE 0 0,0
07.07.2020 22:00:00 11,4 10,1 5 3 - - SE 0 0,0
07.07.2020 21:00:00 11,8 10,2 8 4 - - ESE 0 0,0
07.07.2020 20:00:00 12,0 9,9 9 5 - - ESE 0 0,0
07.07.2020 19:00:00 12,2 9,8 11 6 - - ESE 0 0,0
07.07.2020 18:00:00 12,8 9,9 13 7 - - ESE 0 0,0
07.07.2020 17:00:00 13,4 10,4 13 7 - - ESE 0 0,0
07.07.2020 16:00:00 13,5 10,0 5 3 - - SE 0 0,0
07.07.2020 15:00:00 12,3 10,1 9 5 - - S 0 0,0
07.07.2020 14:00:00 11,4 10,1 9 5 - - S 0 0,0
07.07.2020 13:00:00 12,0 9,5 11 6 - - S 0 0,0
07.07.2020 12:00:00 12,2 10,7 8 4 - - SSW 0 0,4
07.07.2020 11:00:00 11,5 9,6 8 4 - - SSW 0 0,2
07.07.2020 10:00:00 11,7 9,9 8 4 - - SW 0 0,0
07.07.2020 09:00:00 10,9 10,6 8 4 - - SW 0 0,8
07.07.2020 08:00:00 10,6 10,2 4 2 - - WSW 0 0,0
07.07.2020 07:00:00 9,9 9,7 2 1 - - S 0 0,4
07.07.2020 06:00:00 9,1 8,8 2 1 - - SW 0 0,6
07.07.2020 05:00:00 8,1 8,0 2 1 - - E 0 0,0
07.07.2020 04:00:00 7,9 7,6 2 1 - - ENE 0 0,0
07.07.2020 03:00:00 8,4 8,2 4 2 - - NE 0 0,0
07.07.2020 02:00:00 7,9 7,6 2 1 - - NNE 0 0,0
07.07.2020 01:00:00 8,5 8,0 0 0 - - N - 0,0
07.07.2020 00:00:00 8,3 7,3 2 1 - - NNW 0 0,0
06.07.2020 23:00:00 9,7 7,4 2 1 - - NW 0 0,0
06.07.2020 22:00:00 11,7 7,7 4 2 - - NW 0 0,0
06.07.2020 21:00:00 13,3 7,8 5 3 - - WNW 6 0,0
06.07.2020 20:00:00 14,9 8,0 8 4 - - NW 54 0,0
06.07.2020 19:00:00 14,9 8,3 8 4 - - NNW 6 0,0
06.07.2020 18:00:00 15,1 8,4 8 4 - - NW 24 0,0
06.07.2020 17:00:00 14,6 9,6 9 5 - - NNW 12 0,0
06.07.2020 16:00:00 14,8 9,2 9 5 - - WNW 0 0,0
06.07.2020 15:00:00 15,3 9,3 11 6 - - NW 12 0,0
06.07.2020 14:00:00 16,8 9,8 11 6 - - NW 36 0,0
06.07.2020 13:00:00 15,1 8,9 11 6 - - NNW 30 0,0
06.07.2020 12:00:00 15,1 9,2 9 5 - - NNW 24 0,0
06.07.2020 11:00:00 13,5 9,7 13 7 - - NNW 18 0,0
06.07.2020 10:00:00 14,0 8,1 11 6 - - NNW 30 0,0
06.07.2020 09:00:00 13,7 8,7 13 7 - - NNW 42 0,0
06.07.2020 08:00:00 11,6 9,4 9 5 - - NNW 0 0,0
06.07.2020 07:00:00 11,3 9,7 11 6 - - NW 0 0,0
06.07.2020 06:00:00 11,0 9,5 9 5 - - WNW 0 0,0
06.07.2020 05:00:00 10,8 9,1 9 5 - - WNW 0 0,0
06.07.2020 04:00:00 10,7 8,4 11 6 - - W 0 0,0
06.07.2020 03:00:00 10,2 8,5 11 6 - - W 0 0,0
06.07.2020 02:00:00 10,7 8,7 11 6 - - W 0 0,0
06.07.2020 01:00:00 10,0 8,0 8 4 - - W - 0,0
06.07.2020 00:00:00 9,9 8,1 5 3 - - W 0 0,0
05.07.2020 23:00:00 10,6 8,5 8 4 - - WNW 0 0,0
05.07.2020 22:00:00 11,3 9,3 11 6 - - WNW 0 0,0
05.07.2020 21:00:00 12,3 9,0 13 7 - - W 6 0,0
05.07.2020 20:00:00 12,2 9,0 15 8 - - WNW 0 0,6
05.07.2020 19:00:00 13,2 8,9 16 9 - - WNW 30 0,0
05.07.2020 18:00:00 12,9 9,2 15 8 - - WNW 18 2,0
05.07.2020 17:00:00 12,8 9,5 21 11 52 28 W 18 0,4
05.07.2020 16:00:00 13,8 9,3 28 15 50 27 WSW 30 0,4
05.07.2020 15:00:00 14,2 8,1 24 13 52 28 W 36 0,0
05.07.2020 14:00:00 14,2 8,3 24 13 - - W 36 1,0
05.07.2020 13:00:00 14,1 10,7 15 8 61 33 W 42 0,8
05.07.2020 12:00:00 14,6 8,4 24 13 50 27 W 36 0,0
05.07.2020 11:00:00 13,6 10,8 21 11 48 26 W 18 0,2
05.07.2020 10:00:00 12,8 8,5 22 12 - - W 36 0,0
05.07.2020 09:00:00 11,7 8,6 22 12 - - W 0 0,0
05.07.2020 08:00:00 11,3 8,4 22 12 - - W 36 0,0
05.07.2020 07:00:00 10,5 8,1 18 10 - - W 24 0,0
05.07.2020 06:00:00 10,2 9,1 11 6 - - W 0 2,6
05.07.2020 05:00:00 11,5 8,6 18 10 - - W 0 0,0
05.07.2020 04:00:00 12,0 8,8 15 8 - - W 0 0,0
05.07.2020 03:00:00 13,2 10,3 22 12 46 25 W 0 0,0
05.07.2020 02:00:00 14,4 12,5 18 10 - - W 0 0,4
05.07.2020 01:00:00 15,1 14,3 21 11 - - W - 0,4
05.07.2020 00:00:00 15,7 14,6 21 11 - - WSW 0 0,2
04.07.2020 23:00:00 15,8 15,2 18 10 - - WSW 0 0,2
04.07.2020 22:00:00 16,0 15,4 18 10 - - SW 0 0,2
04.07.2020 21:00:00 15,8 14,7 18 10 - - SW 0 0,2
04.07.2020 20:00:00 15,9 15,0 15 8 - - SSW 0 0,4
04.07.2020 19:00:00 16,7 14,4 16 9 - - SW 0 0,0
04.07.2020 18:00:00 16,5 14,2 13 7 - - SW 0 0,0
04.07.2020 17:00:00 17,0 15,1 8 4 - - WSW 0 0,0
04.07.2020 16:00:00 16,0 14,9 9 5 - - SW 0 0,4
04.07.2020 15:00:00 15,7 14,7 4 2 - - NNW 0 1,4
04.07.2020 14:00:00 15,2 14,2 4 2 - - NNW 0 1,2
04.07.2020 13:00:00 15,9 14,0 2 1 - - NW 0 0,0
04.07.2020 12:00:00 15,1 13,7 5 3 - - W 0 0,0
04.07.2020 11:00:00 15,7 13,4 4 2 - - NW 0 0,0
04.07.2020 10:00:00 15,5 13,9 5 3 - - W 0 0,0
04.07.2020 09:00:00 14,5 13,4 8 4 - - W 0 0,0
04.07.2020 08:00:00 14,0 14,0 5 3 - - WNW 0 0,0
04.07.2020 07:00:00 13,3 13,3 2 1 - - WNW 0 0,0
04.07.2020 06:00:00 12,5 12,4 0 0 - - N 0 0,2
04.07.2020 05:00:00 11,8 11,8 0 0 - - N 0 0,0

tt = temperature
td = dewpoint
ff = wind speed
fx = gusts
dd = wind direction
sd = sunshine duration
rr = precipitation

Next stations